Time;durP1;ratioP1;P1;durP2;ratioP2;P2;SDS_P1;SDS_P2;PMS_P1;PMS_P2;Temp;Humidity;BMP_temperature;BMP_pressure;BME280_temperature;BME280_humidity;BME280_pressure;Samples;Min_cycle;Max_cycle;Signal;HPM_P1;HPM_P2
2021/08/22 00:00:28;;;;;;;5.22;3.42;;;;;;;21.77;55.34;100659.69;5050939;28;20039;-75
2021/08/22 00:02:54;;;;;;;7.43;4.00;;;;;;;21.89;55.19;100660.50;5050767;28;20100;-74
2021/08/22 00:05:20;;;;;;;8.30;3.80;;;;;;;21.88;55.16;100669.25;5050750;28;20051;-73
2021/08/22 00:07:45;;;;;;;6.35;3.72;;;;;;;21.54;56.61;100640.53;5050663;28;20033;-71
2021/08/22 00:10:11;;;;;;;6.10;3.80;;;;;;;21.55;56.91;100658.06;5050821;28;20021;-74
2021/08/22 00:12:37;;;;;;;8.38;3.97;;;;;;;21.31;57.54;100655.53;5050052;28;20104;-73
2021/08/22 00:15:03;;;;;;;6.72;3.42;;;;;;;21.19;58.32;100659.97;5050426;28;20029;-70
2021/08/22 00:17:28;;;;;;;10.93;4.20;;;;;;;21.21;58.45;100658.19;5049828;28;20067;-73
2021/08/22 00:19:54;;;;;;;6.53;3.92;;;;;;;21.13;58.96;100672.25;5050394;28;20056;-70
2021/08/22 00:22:19;;;;;;;8.57;4.45;;;;;;;20.97;59.39;100663.53;5053396;28;20043;-71
2021/08/22 00:24:45;;;;;;;5.13;3.90;;;;;;;20.90;59.84;100663.53;5053612;28;20116;-72
2021/08/22 00:27:10;;;;;;;8.10;4.25;;;;;;;20.96;59.32;100660.91;5053666;28;20017;-74
2021/08/22 00:29:36;;;;;;;6.18;4.05;;;;;;;20.95;60.07;100651.31;5053757;28;20037;-75
2021/08/22 00:32:02;;;;;;;6.20;4.10;;;;;;;20.96;60.47;100647.78;5053566;28;20402;-73
2021/08/22 00:34:27;;;;;;;6.22;4.20;;;;;;;21.07;60.38;100659.13;5051458;28;20060;-73
2021/08/22 00:36:54;;;;;;;7.43;4.45;;;;;;;21.11;60.47;100663.50;5053283;28;20060;-73
2021/08/22 00:39:21;;;;;;;6.20;4.07;;;;;;;20.78;61.50;100660.06;5053770;28;20116;-72
2021/08/22 00:41:46;;;;;;;5.38;4.30;;;;;;;20.30;62.54;100612.00;5053330;28;20021;-71
2021/08/22 00:44:11;;;;;;;5.50;4.38;;;;;;;20.50;62.49;100653.97;5053704;28;20032;-73
2021/08/22 00:46:37;;;;;;;7.45;4.53;;;;;;;20.60;62.19;100647.84;5053599;28;20025;-70
2021/08/22 00:49:05;;;;;;;7.78;4.40;;;;;;;20.78;61.96;100646.94;5053578;28;20037;-71
2021/08/22 00:51:31;;;;;;;5.35;4.03;;;;;;;20.76;62.09;100642.56;5053528;28;20035;-70
2021/08/22 00:53:56;;;;;;;7.05;4.40;;;;;;;20.97;61.60;100641.66;5053379;28;20115;-72
2021/08/22 00:56:22;;;;;;;6.75;4.95;;;;;;;21.01;61.69;100646.03;5053380;28;20049;-71
2021/08/22 00:58:47;;;;;;;7.13;4.80;;;;;;;20.81;62.19;100635.56;5053199;28;20494;-70
2021/08/22 01:01:18;;;;;;;8.13;4.70;;;;;;;20.78;62.58;100654.81;5053362;28;20037;-71
2021/08/22 01:03:55;;;;;;;10.43;5.13;;;;;;;20.80;61.87;100653.06;5051109;28;20033;-71
2021/08/22 01:06:50;;;;;;;6.70;4.57;;;;;;;20.83;62.08;100642.56;5053203;28;20036;-71
2021/08/22 01:09:29;;;;;;;6.32;4.53;;;;;;;20.97;60.97;100633.78;5053005;28;20494;-73
2021/08/22 01:12:00;;;;;;;5.65;4.30;;;;;;;21.15;60.67;100640.72;5053386;28;20037;-74
2021/08/22 01:14:32;;;;;;;5.97;3.97;;;;;;;20.99;61.07;100632.03;5052935;28;20036;-73
2021/08/22 01:16:59;;;;;;;5.22;4.03;;;;;;;21.06;60.75;100632.88;5052880;28;20075;-72
2021/08/22 01:19:29;;;;;;;6.55;4.63;;;;;;;21.00;60.88;100620.66;5052766;28;20120;-73
2021/08/22 01:21:58;;;;;;;5.45;4.40;;;;;;;21.06;61.58;100631.13;5052928;28;20029;-72
2021/08/22 01:24:25;;;;;;;7.60;4.20;;;;;;;21.10;61.96;100624.97;5052904;28;20021;-75
2021/08/22 01:26:54;;;;;;;6.38;4.70;;;;;;;21.08;62.59;100631.97;5052878;28;20088;-71
2021/08/22 01:29:23;;;;;;;5.78;4.50;;;;;;;21.17;62.69;100626.72;5052755;28;20035;-73
2021/08/22 01:31:51;;;;;;;6.13;4.40;;;;;;;20.76;63.87;100588.38;5052416;28;20039;-72
2021/08/22 01:34:19;;;;;;;7.93;4.82;;;;;;;21.11;62.81;100634.59;5051349;28;20112;-73
2021/08/22 01:36:45;;;;;;;6.20;4.68;;;;;;;21.23;61.91;100630.19;5050377;28;20483;-69
2021/08/22 01:39:11;;;;;;;7.18;4.38;;;;;;;21.35;61.72;100638.00;5052742;28;20398;-69
2021/08/22 01:41:38;;;;;;;8.82;4.70;;;;;;;21.53;60.69;100633.53;5052368;28;20029;-70
2021/08/22 01:44:05;;;;;;;8.43;4.72;;;;;;;21.48;61.45;100636.19;5052328;28;20021;-69
2021/08/22 01:46:35;;;;;;;10.52;4.97;;;;;;;21.44;61.79;100614.31;5052328;28;20025;-69
2021/08/22 01:49:03;;;;;;;10.98;4.93;;;;;;;21.12;61.78;100556.72;5052511;28;20023;-69
2021/08/22 01:51:32;;;;;;;19.67;5.30;;;;;;;21.55;61.96;100630.00;5052608;28;20143;-69
2021/08/22 01:54:05;;;;;;;12.85;4.95;;;;;;;21.62;62.08;100639.66;5052253;28;20082;-69
2021/08/22 01:56:31;;;;;;;13.18;4.78;;;;;;;21.54;62.18;100622.16;5052367;28;20053;-69
2021/08/22 01:58:57;;;;;;;11.38;4.65;;;;;;;21.53;62.60;100634.41;5052013;28;20044;-69
2021/08/22 02:01:22;;;;;;;17.88;5.45;;;;;;;21.62;62.40;100634.38;5051937;28;20070;-68
2021/08/22 02:04:07;;;;;;;14.57;5.35;;;;;;;21.62;62.40;100642.28;5052131;28;20033;-69
2021/08/22 02:06:38;;;;;;;9.30;4.97;;;;;;;21.24;62.67;100596.03;5050801;28;20024;-69
2021/08/22 02:09:07;;;;;;;9.25;4.72;;;;;;;21.43;63.44;100633.59;5051991;28;20411;-69
2021/08/22 02:11:38;;;;;;;11.30;5.00;;;;;;;21.41;63.94;100644.97;5051727;28;20033;-69
2021/08/22 02:14:06;;;;;;;13.35;5.30;;;;;;;21.37;63.35;100649.38;5052098;28;20125;-69
2021/08/22 02:16:34;;;;;;;9.50;4.47;;;;;;;21.29;63.48;100651.16;5051804;28;20029;-69
2021/08/22 02:19:01;;;;;;;11.77;4.85;;;;;;;21.17;64.10;100650.34;5051788;28;20092;-71
2021/08/22 02:21:27;;;;;;;11.38;5.20;;;;;;;20.90;64.36;100593.56;5047199;28;20104;-68
2021/08/22 02:23:55;;;;;;;13.48;4.63;;;;;;;21.01;64.92;100636.38;5051634;28;20113;-69
2021/08/22 02:26:22;;;;;;;10.00;5.05;;;;;;;20.81;65.48;100597.09;5051502;28;20505;-69
2021/08/22 02:28:55;;;;;;;9.90;4.80;;;;;;;21.18;65.17;100640.69;5051750;28;20036;-70
2021/08/22 02:31:21;;;;;;;6.93;5.00;;;;;;;21.12;64.93;100612.75;5051494;28;20082;-69
2021/08/22 02:33:46;;;;;;;9.85;4.90;;;;;;;21.24;64.64;100631.94;5051391;28;20029;-69
2021/08/22 02:36:12;;;;;;;10.05;4.82;;;;;;;21.16;65.61;100634.59;5051570;28;20089;-70
2021/08/22 02:38:37;;;;;;;8.82;4.80;;;;;;;21.12;65.72;100624.97;5051244;28;20021;-69
2021/08/22 02:41:02;;;;;;;10.52;4.90;;;;;;;21.06;65.87;100623.25;5051514;28;20029;-69
2021/08/22 02:43:28;;;;;;;9.13;5.40;;;;;;;21.05;65.89;100624.13;5051055;28;20395;-69
2021/08/22 02:45:53;;;;;;;10.02;4.68;;;;;;;21.01;65.81;100628.50;5051283;28;20472;-71
2021/08/22 02:48:19;;;;;;;8.27;4.65;;;;;;;20.99;66.06;100629.41;5051649;28;20025;-68
2021/08/22 02:50:44;;;;;;;11.73;5.32;;;;;;;20.96;66.21;100629.41;5051349;28;20035;-69
2021/08/22 02:53:10;;;;;;;10.52;5.22;;;;;;;20.77;66.47;100629.47;5051054;28;20032;-72
2021/08/22 02:55:38;;;;;;;12.27;5.30;;;;;;;20.71;67.16;100634.75;5051443;28;20029;-70
2021/08/22 02:58:04;;;;;;;14.80;5.95;;;;;;;20.62;66.60;100629.47;5051215;28;20057;-70
2021/08/22 03:00:29;;;;;;;13.18;5.28;;;;;;;20.55;66.90;100635.59;5050866;28;20453;-69
2021/08/22 03:02:55;;;;;;;12.80;5.60;;;;;;;20.26;66.95;100640.00;5051369;28;20021;-68
2021/08/22 03:05:20;;;;;;;25.10;7.07;;;;;;;20.01;66.96;100640.00;5050884;28;20032;-68
2021/08/22 03:07:46;;;;;;;13.77;6.90;;;;;;;20.06;65.51;100631.25;5050804;28;20021;-74
2021/08/22 03:10:13;;;;;;;20.75;7.30;;;;;;;20.09;64.97;100641.72;5051334;28;20021;-70
2021/08/22 03:12:38;;;;;;;17.13;7.93;;;;;;;19.98;64.93;100631.25;5051107;28;20025;-73
2021/08/22 03:15:08;;;;;;;14.75;6.68;;;;;;;19.95;65.49;100640.00;5051098;28;20445;-70
2021/08/22 03:17:33;;;;;;;;;;;;;;;19.65;66.03;100625.06;5051343;28;20079;-68
2021/08/22 03:20:02;;;;;;;8.88;5.82;;;;;;;19.73;65.74;100628.56;5050957;28;19913;-71
2021/08/22 03:22:28;;;;;;;7.75;5.50;;;;;;;19.77;65.78;100618.97;5050835;28;20446;-72
2021/08/22 03:24:53;;;;;;;8.32;5.40;;;;;;;19.90;65.64;100640.84;5051279;28;20043;-70
2021/08/22 03:27:19;;;;;;;8.77;5.68;;;;;;;19.96;65.16;100640.84;5050852;28;20498;-70
2021/08/22 03:29:44;;;;;;;12.32;5.15;;;;;;;19.95;65.24;100641.72;5050834;28;20025;-70
2021/08/22 03:32:09;;;;;;;13.40;5.45;;;;;;;20.17;64.26;100635.63;5049558;28;20104;-70
2021/08/22 03:34:35;;;;;;;9.85;5.35;;;;;;;20.40;63.52;100637.38;5050784;28;20036;-71
2021/08/22 03:37:01;;;;;;;9.23;5.72;;;;;;;20.22;64.01;100605.94;5050771;28;20017;-70
2021/08/22 03:39:26;;;;;;;10.93;5.70;;;;;;;20.43;63.45;100629.50;5051066;28;20094;-69
2021/08/22 03:41:51;;;;;;;18.60;5.43;;;;;;;20.48;63.53;100638.22;5050848;28;20025;-68
2021/08/22 03:44:17;;;;;;;12.50;5.40;;;;;;;20.50;63.70;100628.63;5050786;28;20025;-70
2021/08/22 03:46:42;;;;;;;8.57;5.22;;;;;;;20.45;63.46;100612.00;5050846;28;20052;-70
2021/08/22 03:49:08;;;;;;;16.90;5.18;;;;;;;20.40;63.83;100602.41;5050694;28;20029;-70
2021/08/22 03:51:33;;;;;;;9.00;5.15;;;;;;;20.61;64.40;100640.81;5050922;28;20075;-69
2021/08/22 03:53:58;;;;;;;9.68;5.47;;;;;;;20.51;64.86;100640.84;5050649;28;20029;-70
2021/08/22 03:56:24;;;;;;;14.52;4.82;;;;;;;20.56;65.62;100650.47;5050677;28;20079;-73
2021/08/22 03:58:49;;;;;;;13.40;5.43;;;;;;;20.50;63.90;100648.72;5052411;28;20026;-73
2021/08/22 04:01:15;;;;;;;14.77;5.03;;;;;;;20.56;64.83;100658.31;5054169;28;20104;-71
2021/08/22 04:03:41;;;;;;;8.48;5.13;;;;;;;20.53;65.46;100654.81;5054279;28;20045;-72
2021/08/22 04:06:07;;;;;;;16.17;5.30;;;;;;;20.49;64.36;100657.47;5054298;28;20039;-69
2021/08/22 04:08:35;;;;;;;14.82;5.18;;;;;;;20.26;64.17;100607.66;5051736;28;20037;-70
2021/08/22 04:11:00;;;;;;;12.55;5.40;;;;;;;20.59;64.81;100653.09;5053886;28;20033;-69
2021/08/22 04:13:26;;;;;;;12.35;4.93;;;;;;;20.57;64.94;100636.47;5054390;28;20549;-70
2021/08/22 04:15:51;;;;;;;9.02;5.93;;;;;;;20.44;65.05;100609.41;5052151;28;20055;-69
2021/08/22 04:18:17;;;;;;;9.00;5.30;;;;;;;20.67;65.36;100652.22;5053165;28;20438;-70
2021/08/22 04:20:43;;;;;;;8.98;4.97;;;;;;;20.44;65.52;100612.88;5054115;28;20443;-68
2021/08/22 04:23:10;;;;;;;15.00;5.93;;;;;;;20.69;65.54;100649.56;5054255;28;20064;-70
2021/08/22 04:25:35;;;;;;;10.60;5.15;;;;;;;20.69;66.18;100660.06;5054087;28;20037;-69
2021/08/22 04:28:01;;;;;;;13.00;5.25;;;;;;;20.59;66.65;100661.81;5054194;28;20127;-70
2021/08/22 04:30:26;;;;;;;17.98;5.72;;;;;;;20.26;67.05;100660.09;5044689;28;20032;-72
2021/08/22 04:32:52;;;;;;;9.98;6.80;;;;;;;19.71;68.31;100638.16;5051324;28;20060;-70
2021/08/22 04:35:17;;;;;;;11.70;8.23;;;;;;;19.70;69.01;100673.09;5053759;28;20518;-72
2021/08/22 04:37:43;;;;;;;15.43;9.55;;;;;;;19.81;69.07;100670.50;5053727;28;20028;-69
2021/08/22 04:40:11;;;;;;;31.95;18.52;;;;;;;19.81;69.06;100674.00;5054168;28;20110;-69
2021/08/22 04:42:36;;;;;;;20.95;15.25;;;;;;;19.64;69.61;100671.34;5053974;28;20044;-72
2021/08/22 04:45:02;;;;;;;14.95;8.88;;;;;;;19.92;70.17;100681.03;5053754;28;20482;-70
2021/08/22 04:47:28;;;;;;;9.20;6.93;;;;;;;19.99;68.35;100678.44;5053933;28;20029;-69
2021/08/22 04:49:53;;;;;;;12.07;6.20;;;;;;;20.18;67.86;100681.94;5053860;28;20126;-69
2021/08/22 04:52:19;;;;;;;10.40;6.15;;;;;;;20.13;66.71;100636.50;5053641;28;20033;-69
2021/08/22 04:54:44;;;;;;;8.20;5.78;;;;;;;20.41;65.96;100657.50;5053791;28;20446;-69
2021/08/22 04:57:10;;;;;;;8.60;5.05;;;;;;;20.60;65.35;100673.19;5053660;28;20557;-74
2021/08/22 04:59:35;;;;;;;7.90;5.00;;;;;;;20.60;63.31;100667.94;5053603;28;20431;-70
2021/08/22 05:02:01;;;;;;;8.85;5.10;;;;;;;20.40;64.09;100684.56;5053512;28;20467;-70
2021/08/22 05:04:28;;;;;;;8.57;5.70;;;;;;;20.32;64.71;100679.31;5053166;28;20487;-71
2021/08/22 05:06:54;;;;;;;8.77;5.40;;;;;;;20.28;63.87;100643.47;5052899;28;20025;-75
2021/08/22 05:09:20;;;;;;;7.65;5.35;;;;;;;20.46;64.41;100692.44;5053458;28;20031;-69
2021/08/22 05:11:45;;;;;;;8.95;5.15;;;;;;;20.36;64.76;100688.94;5053375;28;20060;-69
2021/08/22 05:14:10;;;;;;;9.50;5.88;;;;;;;20.38;64.77;100688.06;5053398;28;20028;-69
2021/08/22 05:16:36;;;;;;;7.93;5.45;;;;;;;20.17;65.56;100684.56;5053254;28;20021;-69
2021/08/22 05:19:01;;;;;;;8.35;5.65;;;;;;;20.31;65.71;100689.81;5052860;28;20028;-69
2021/08/22 05:21:27;;;;;;;11.05;5.90;;;;;;;20.36;65.97;100693.28;5052956;28;20032;-71
2021/08/22 05:23:53;;;;;;;9.07;6.32;;;;;;;20.49;65.63;100678.47;5053207;28;20029;-69
2021/08/22 05:26:19;;;;;;;9.90;6.55;;;;;;;20.65;66.31;100684.56;5053228;28;20037;-69
2021/08/22 05:28:44;;;;;;;9.88;7.35;;;;;;;20.58;65.87;100688.06;5053031;28;20036;-69
2021/08/22 05:31:10;;;;;;;8.05;5.82;;;;;;;20.64;65.19;100665.31;5050962;28;20041;-71
2021/08/22 05:33:35;;;;;;;12.27;6.75;;;;;;;20.97;64.34;100688.88;5052915;28;20021;-69
2021/08/22 05:36:33;;;;;;;7.57;5.57;;;;;;;20.81;64.00;100685.41;5050716;28;20045;-69
2021/08/22 05:38:59;;;;;;;9.20;4.93;;;;;;;20.70;63.37;100643.44;5030625;28;20073;-69
2021/08/22 05:41:24;;;;;;;6.03;4.70;;;;;;;21.24;61.94;100687.94;5030597;28;20115;-69
2021/08/22 05:43:50;;;;;;;5.57;4.35;;;;;;;21.28;62.00;100659.91;5030696;28;20061;-72
2021/08/22 05:46:15;;;;;;;8.27;5.07;;;;;;;21.67;62.33;100688.66;5030572;28;20059;-70
2021/08/22 05:48:41;;;;;;;8.88;4.35;;;;;;;21.67;60.56;100689.53;5030455;28;20053;-75
2021/08/22 05:51:13;;;;;;;7.72;3.90;;;;;;;21.65;59.57;100691.31;5030247;28;20033;-72
2021/08/22 05:53:41;;;;;;;6.90;3.83;;;;;;;21.56;58.79;100692.22;5030178;28;20120;-70
2021/08/22 05:56:07;;;;;;;5.90;3.83;;;;;;;21.76;58.88;100686.84;5030181;28;20450;-70
2021/08/22 05:58:32;;;;;;;5.35;3.38;;;;;;;21.89;58.00;100695.53;5030119;28;20053;-69
2021/08/22 06:00:57;;;;;;;6.45;3.70;;;;;;;21.91;58.20;100695.53;5030232;28;20439;-73
2021/08/22 06:03:23;;;;;;;5.88;3.55;;;;;;;21.97;60.06;100698.13;5030245;28;20487;-70
2021/08/22 06:05:50;;;;;;;6.40;3.95;;;;;;;22.06;57.97;100698.06;5030295;28;20032;-71
2021/08/22 06:08:16;;;;;;;5.82;3.55;;;;;;;21.92;56.24;100694.63;5030094;28;20502;-70
2021/08/22 06:10:41;;;;;;;8.50;3.72;;;;;;;21.90;55.85;100701.66;5029852;28;20134;-70
2021/08/22 06:13:06;;;;;;;6.53;4.20;;;;;;;22.06;56.83;100697.19;5013774;28;20475;-70
2021/08/22 06:15:32;;;;;;;7.07;4.00;;;;;;;22.26;56.18;100699.66;5042858;28;20037;-69
2021/08/22 06:17:57;;;;;;;5.68;3.80;;;;;;;22.35;55.68;100698.72;5052101;28;20031;-69
2021/08/22 06:20:23;;;;;;;6.40;3.83;;;;;;;22.39;54.77;100690.84;5051566;28;20021;-70
2021/08/22 06:22:48;;;;;;;7.28;3.63;;;;;;;22.52;55.18;100688.06;5051962;28;20033;-70
2021/08/22 06:25:13;;;;;;;8.98;3.78;;;;;;;22.66;53.03;100694.09;5050808;28;20100;-73
2021/08/22 06:27:39;;;;;;;6.72;3.58;;;;;;;22.61;53.76;100657.28;5051877;28;20032;-70
2021/08/22 06:30:05;;;;;;;5.60;3.60;;;;;;;22.90;53.26;100702.63;5051894;28;20017;-70
2021/08/22 06:32:30;;;;;;;8.07;3.65;;;;;;;22.90;51.99;100686.84;5049374;28;20175;-70
2021/08/22 06:34:56;;;;;;;4.53;3.22;;;;;;;23.07;53.00;100695.41;5049279;28;20045;-69
2021/08/22 06:37:21;;;;;;;5.35;3.40;;;;;;;23.12;50.80;100694.50;5049739;28;20499;-70
2021/08/22 06:39:48;;;;;;;4.88;3.28;;;;;;;23.15;49.85;100691.84;5049499;28;20033;-70
2021/08/22 06:42:14;;;;;;;5.70;3.20;;;;;;;23.21;49.47;100702.34;5049439;28;20029;-70
2021/08/22 06:44:41;;;;;;;6.22;3.83;;;;;;;23.41;51.69;100689.81;5049525;28;20037;-75
2021/08/22 06:47:07;;;;;;;7.15;2.88;;;;;;;23.61;49.57;100699.19;5049571;28;20044;-69
2021/08/22 06:49:34;;;;;;;5.28;3.75;;;;;;;23.68;49.48;100694.72;5049209;28;20433;-70
2021/08/22 06:51:59;;;;;;;7.50;3.45;;;;;;;23.78;53.03;100693.69;5049260;28;20036;-70
2021/08/22 06:54:25;;;;;;;7.57;3.65;;;;;;;23.77;49.59;100696.34;5049303;28;20024;-73
2021/08/22 06:56:53;;;;;;;4.32;3.20;;;;;;;23.88;49.22;100697.06;5048875;28;20459;-69
2021/08/22 06:59:18;;;;;;;6.50;3.10;;;;;;;23.95;47.89;100696.13;5048930;28;20032;-73
2021/08/22 07:01:44;;;;;;;5.53;3.38;;;;;;;24.04;47.71;100693.34;5049131;28;20040;-69
2021/08/22 07:04:12;;;;;;;4.88;3.40;;;;;;;24.20;50.27;100695.72;5049085;28;20048;-70
2021/08/22 07:06:38;;;;;;;5.23;3.00;;;;;;;24.18;47.06;100677.28;5049090;28;20033;-70
2021/08/22 07:09:03;;;;;;;8.45;3.70;;;;;;;24.33;46.67;100706.97;5049474;28;20052;-70
2021/08/22 07:11:29;;;;;;;8.57;3.70;;;;;;;24.38;45.96;100699.84;5051301;28;20115;-71
2021/08/22 07:13:54;;;;;;;8.45;3.55;;;;;;;24.29;45.43;100661.28;5051404;28;20033;-70
2021/08/22 07:16:20;;;;;;;7.82;3.20;;;;;;;24.65;46.53;100698.53;5051374;28;20017;-71
2021/08/22 07:18:45;;;;;;;6.43;3.15;;;;;;;24.68;43.22;100695.81;5051447;28;20170;-69
2021/08/22 07:21:10;;;;;;;5.13;3.03;;;;;;;24.78;43.87;100698.31;5051468;28;20025;-72
2021/08/22 07:23:36;;;;;;;6.38;3.53;;;;;;;24.84;44.60;100690.28;5051306;28;20025;-70
2021/08/22 07:26:01;;;;;;;9.00;3.20;;;;;;;24.92;45.02;100690.97;5051069;28;20037;-69
2021/08/22 07:28:27;;;;;;;5.22;2.90;;;;;;;25.03;43.35;100686.38;5050941;28;20029;-71
2021/08/22 07:30:52;;;;;;;3.35;2.85;;;;;;;25.17;42.80;100690.50;5053690;28;20017;-70
2021/08/22 07:33:18;;;;;;;6.40;3.30;;;;;;;25.19;43.12;100684.28;5052952;28;20120;-70
2021/08/22 07:35:43;;;;;;;5.40;3.13;;;;;;;25.38;44.42;100697.16;5055158;28;20025;-70
2021/08/22 07:38:08;;;;;;;7.95;3.17;;;;;;;25.28;41.68;100688.50;5052913;28;20028;-69
2021/08/22 07:40:34;;;;;;;3.85;2.92;;;;;;;25.41;43.09;100693.56;5054987;28;20021;-69
2021/08/22 07:42:59;;;;;;;4.60;3.20;;;;;;;25.52;41.90;100689.81;5054998;28;20082;-70
2021/08/22 07:45:25;;;;;;;6.07;3.35;;;;;;;25.54;43.86;100686.25;5050094;28;20399;-70
2021/08/22 07:47:50;;;;;;;5.40;3.47;;;;;;;25.68;43.39;100687.69;5035159;28;20467;-74
2021/08/22 07:50:16;;;;;;;6.07;3.22;;;;;;;25.86;41.67;100688.19;5034920;28;20014;-69
2021/08/22 07:52:41;;;;;;;4.68;3.10;;;;;;;25.84;42.23;100679.41;5034838;28;20033;-70
2021/08/22 07:55:07;;;;;;;6.43;3.40;;;;;;;25.76;39.09;100655.78;5045136;28;20036;-69
2021/08/22 07:57:33;;;;;;;5.63;3.33;;;;;;;25.95;38.87;100682.66;5054973;28;20109;-70
2021/08/22 07:59:58;;;;;;;5.50;3.30;;;;;;;26.02;40.33;100693.09;5054937;28;20037;-70
2021/08/22 08:02:24;;;;;;;4.82;3.17;;;;;;;26.22;38.28;100688.25;5039356;28;20032;-70
2021/08/22 08:04:51;;;;;;;6.32;3.55;;;;;;;26.46;38.54;100677.94;5034854;28;20025;-70
2021/08/22 08:07:17;;;;;;;7.45;3.38;;;;;;;26.72;37.84;100681.69;5036187;28;20033;-71
2021/08/22 08:09:43;;;;;;;4.05;3.20;;;;;;;26.71;37.13;100658.75;5052673;28;20403;-71
2021/08/22 08:12:08;;;;;;;6.55;3.60;;;;;;;26.98;37.70;100678.34;5053107;28;20043;-72
2021/08/22 08:14:34;;;;;;;4.50;3.33;;;;;;;27.16;36.49;100665.47;5054721;28;20029;-70
2021/08/22 08:16:59;;;;;;;8.23;3.63;;;;;;;27.29;40.87;100673.03;5053164;28;20472;-70
2021/08/22 08:19:25;;;;;;;5.18;4.07;;;;;;;27.35;37.83;100668.44;5053511;28;20032;-70
2021/08/22 08:21:50;;;;;;;8.48;3.90;;;;;;;27.33;37.57;100649.94;5054047;28;20040;-69
2021/08/22 08:24:16;;;;;;;4.85;3.70;;;;;;;27.50;36.24;100668.00;5054128;28;20032;-72
2021/08/22 08:26:41;;;;;;;7.28;3.90;;;;;;;27.57;36.66;100660.75;5054068;28;20048;-73
2021/08/22 08:29:06;;;;;;;10.18;4.45;;;;;;;27.48;38.08;100659.25;5054096;28;20021;-74
2021/08/22 08:31:35;;;;;;;13.32;4.20;;;;;;;27.56;36.45;100659.00;5053682;28;20029;-73
2021/08/22 08:34:01;;;;;;;8.73;3.47;;;;;;;27.71;36.98;100655.00;5046639;28;20025;-69
2021/08/22 08:36:26;;;;;;;8.45;3.97;;;;;;;27.88;37.13;100654.50;5051882;28;20096;-69
2021/08/22 08:38:52;;;;;;;9.40;4.00;;;;;;;27.95;36.52;100665.75;5053242;28;20163;-71
2021/08/22 08:41:17;;;;;;;19.23;8.05;;;;;;;27.90;38.90;100664.13;5052660;28;20398;-70
2021/08/22 08:43:46;;;;;;;11.02;5.18;;;;;;;27.94;39.41;100670.22;5052705;28;20040;-68
2021/08/22 08:46:14;;;;;;;11.10;4.75;;;;;;;27.75;36.99;100638.97;5053670;28;20106;-70
2021/08/22 08:49:24;;;;;;;10.30;3.60;;;;;;;28.02;38.86;100662.84;5053298;28;20594;-70
2021/08/22 08:52:23;;;;;;;8.93;4.07;;;;;;;28.21;36.22;100664.94;5050903;28;20094;-74
2021/08/22 08:55:17;;;;;;;8.20;3.92;;;;;;;28.47;35.56;100658.72;5042121;28;20033;-73
2021/08/22 08:57:43;;;;;;;12.05;5.22;;;;;;;28.63;34.62;100655.53;5046601;28;20047;-69
2021/08/22 09:00:16;;;;;;;10.90;4.90;;;;;;;28.67;36.90;100650.06;5050864;28;20029;-72
2021/08/22 09:02:41;;;;;;;6.57;4.45;;;;;;;28.42;34.74;100591.63;5033773;28;20408;-72
2021/08/22 09:05:16;;;;;;;8.98;4.45;;;;;;;28.87;34.40;100645.84;5046804;28;20036;-74
2021/08/22 09:08:19;;;;;;;7.53;4.45;;;;;;;29.01;36.54;100650.63;5050586;28;20543;-71
2021/08/22 09:11:15;;;;;;;9.75;4.32;;;;;;;28.87;33.09;100636.09;5049839;28;20033;-71
2021/08/22 09:14:02;;;;;;;13.93;4.72;;;;;;;28.87;33.73;100645.84;5050752;28;20033;-72
2021/08/22 09:17:05;;;;;;;8.95;4.07;;;;;;;29.17;34.52;100640.31;5048505;28;20096;-71
2021/08/22 09:19:51;;;;;;;5.10;4.05;;;;;;;29.39;34.08;100632.41;5048187;28;20194;-72
2021/08/22 09:22:55;;;;;;;11.13;4.80;;;;;;;29.62;33.14;100635.94;5066962;28;20068;-74
2021/08/22 09:25:42;;;;;;;13.43;5.25;;;;;;;29.77;33.26;100631.78;5049083;28;20040;-73
2021/08/22 09:28:07;;;;;;;8.05;4.07;;;;;;;29.79;34.61;100630.78;5049968;28;20048;-73
2021/08/22 09:31:00;;;;;;;8.60;4.10;;;;;;;29.89;32.65;100622.44;5049961;28;20025;-75
2021/08/22 09:34:03;;;;;;;7.53;4.22;;;;;;;29.99;33.24;100621.16;5050640;28;20037;-71
2021/08/22 09:36:31;;;;;;;6.50;4.45;;;;;;;30.16;32.17;100613.31;5051465;28;20091;-71
2021/08/22 09:39:34;;;;;;;6.00;3.90;;;;;;;30.13;33.61;100609.91;5051950;28;20029;-70
2021/08/22 09:42:50;;;;;;;6.93;4.05;;;;;;;30.21;35.65;100610.47;5052109;28;20033;-71
2021/08/22 09:46:13;;;;;;;7.75;4.32;;;;;;;30.18;33.26;100600.81;5052173;28;20028;-74
2021/08/22 09:49:00;;;;;;;8.95;4.60;;;;;;;30.23;32.64;100605.94;5028043;28;20036;-70
2021/08/22 09:51:47;;;;;;;7.45;4.10;;;;;;;30.36;31.77;100595.63;5028634;28;20025;-70
2021/08/22 09:54:34;;;;;;;8.57;4.00;;;;;;;30.45;34.17;100597.88;5029135;28;20049;-72
2021/08/22 09:57:38;;;;;;;8.43;4.60;;;;;;;30.48;31.98;100603.09;5019970;28;20057;-74
2021/08/22 10:00:18;;;;;;;9.07;4.25;;;;;;;30.28;32.98;100601.28;5028566;28;20507;-75
2021/08/22 10:03:19;;;;;;;7.40;4.30;;;;;;;30.42;31.95;100607.78;5027129;28;20501;-74
2021/08/22 10:05:57;;;;;;;6.55;4.35;;;;;;;30.33;31.92;100598.41;5027853;28;20164;-71
2021/08/22 10:08:56;;;;;;;6.57;3.95;;;;;;;30.57;32.13;100590.28;5023589;28;20044;-78
2021/08/22 10:11:29;;;;;;;6.93;3.97;;;;;;;30.75;31.80;100594.78;5027523;28;20033;-70
2021/08/22 10:13:55;;;;;;;8.05;4.22;;;;;;;30.79;29.77;100595.53;5012686;28;20569;-74
2021/08/22 10:16:22;;;;;;;8.80;4.28;;;;;;;30.79;31.59;100596.41;5013127;28;20030;-74
2021/08/22 10:18:48;;;;;;;8.57;4.40;;;;;;;30.97;30.49;100583.16;5037325;28;20045;-70
2021/08/22 10:21:25;;;;;;;6.95;3.88;;;;;;;31.17;30.94;100594.69;5051469;28;20100;-74
2021/08/22 10:23:52;;;;;;;24.35;6.72;;;;;;;31.52;27.89;100597.50;5049424;28;20044;-75
2021/08/22 10:26:49;;;;;;;9.57;4.53;;;;;;;31.71;29.46;100589.47;5048817;28;20040;-78
2021/08/22 10:29:19;;;;;;;6.47;4.00;;;;;;;31.77;29.51;100590.00;5051452;28;20402;-72
2021/08/22 10:31:50;;;;;;;;;;;;;;;31.89;27.67;100596.56;5051903;28;20517;-71
2021/08/22 10:34:16;;;;;;;5.63;3.35;;;;;;;32.10;27.07;100580.34;5051545;28;19913;-71
2021/08/22 10:36:42;;;;;;;5.70;3.90;;;;;;;32.24;26.08;100583.22;5051776;28;20033;-72
2021/08/22 10:39:23;;;;;;;4.90;4.03;;;;;;;32.00;27.13;100574.66;5051576;28;20032;-72
2021/08/22 10:41:59;;;;;;;7.45;3.78;;;;;;;31.72;28.91;100559.16;5051571;28;20052;-74
2021/08/22 10:44:36;;;;;;;7.18;3.95;;;;;;;32.06;26.79;100547.59;5052009;28;20041;-72
2021/08/22 10:47:09;;;;;;;8.07;4.15;;;;;;;32.42;29.05;100578.69;5051721;28;20467;-72
2021/08/22 10:49:52;;;;;;;5.03;3.45;;;;;;;32.00;27.57;100581.78;5051535;28;20104;-76
2021/08/22 10:52:28;;;;;;;11.65;4.82;;;;;;;31.88;27.87;100575.28;5051355;28;20040;-73
2021/08/22 10:55:15;;;;;;;7.43;3.50;;;;;;;32.25;25.75;100573.38;5051527;28;20028;-72
2021/08/22 10:57:49;;;;;;;7.28;3.90;;;;;;;32.52;25.82;100564.88;5051386;28;20427;-72
2021/08/22 11:00:27;;;;;;;13.40;4.97;;;;;;;32.75;25.88;100571.69;5051481;28;20056;-74
2021/08/22 11:02:57;;;;;;;6.60;4.13;;;;;;;32.62;25.74;100563.41;5047568;28;20047;-76
2021/08/22 11:05:25;;;;;;;6.00;3.80;;;;;;;32.70;27.88;100561.19;5048627;28;20267;-77
2021/08/22 11:07:53;;;;;;;11.57;5.20;;;;;;;32.80;25.75;100560.72;5051471;28;20032;-76
2021/08/22 11:10:21;;;;;;;9.13;4.35;;;;;;;33.02;26.51;100561.28;5049748;28;20029;-77
2021/08/22 11:12:49;;;;;;;9.40;4.57;;;;;;;33.32;24.97;100565.88;5051046;28;20398;-75
2021/08/22 11:15:25;;;;;;;8.35;3.70;;;;;;;33.51;23.70;100560.31;5049415;28;20505;-75
2021/08/22 11:17:52;;;;;;;6.95;3.70;;;;;;;33.54;23.96;100527.16;5050941;28;20071;-74
2021/08/22 11:20:19;;;;;;;9.32;4.13;;;;;;;33.74;23.54;100558.09;5045973;28;20033;-75
2021/08/22 11:22:47;;;;;;;9.43;3.35;;;;;;;33.84;25.35;100545.91;5050613;28;20041;-76
2021/08/22 11:25:13;;;;;;;8.38;4.30;;;;;;;33.59;24.77;100510.81;5048027;28;20063;-76
2021/08/22 11:27:40;;;;;;;8.77;3.95;;;;;;;33.89;25.12;100540.28;5050512;28;20104;-75
2021/08/22 11:30:09;;;;;;;7.65;3.85;;;;;;;33.97;23.49;100529.97;5049889;28;20040;-78
2021/08/22 11:32:36;;;;;;;6.68;3.45;;;;;;;33.98;22.80;100531.72;5049130;28;20045;-81
2021/08/22 11:35:17;;;;;;;5.43;3.58;;;;;;;33.88;22.96;100530.50;5050192;28;20064;-75